Emek S — 9HTA9 — position and weather

sailwx.info

Track history (hours):
 
Tides and Currents Weather Stations Pressure Air Temp Water Temp Dewpoint Dewpoint Depression Visibility Wind Speed Wind Dir Waves Ship Positions

Emek S

Last reported at 2017-Oct-18 15:20 UTC. Time now 2017-Nov-23 16:50 UTC.
Position N 29°46' W 093°21'.
Warning: this ship's position is 36 days out of date.

Length 112 m; draft 7 m.

Type: Ship (hazmat cat B). MMSI: 249475000.

Date/timePositionNaut miles runAvg speedWind from/ knotsBaromVisibWave heightAir tempDewpointWater temp
2017-Oct-18 15:20N 29°46' W 093°21'412.2
2017-Oct-18 14:59N 29°50' W 093°21'1111.0
2017-Oct-18 14:00N 30°01' W 093°20'5 9.9
2017-Oct-18 13:30N 30°06' W 093°20'4 8.8
2017-Oct-18 13:00N 30°10' W 093°19'3 6.5
2017-Oct-18 12:30N 30°12' W 093°17'1 1.9
2017-Oct-18 11:59N 30°13' W 093°17'0 0.0
2017-Oct-18 11:29N 30°13' W 093°17'0 0.0
2017-Oct-18 10:59N 30°13' W 093°17'0 0.0
2017-Oct-18 10:29N 30°13' W 093°17'0 0.0
2017-Oct-18 09:58N 30°13' W 093°17'0 0.0
2017-Oct-18 09:28N 30°13' W 093°17'0 0.0
2017-Oct-18 08:58N 30°13' W 093°17'0 0.0
2017-Oct-18 08:28N 30°13' W 093°17'0 0.0
2017-Oct-18 08:00N 30°13' W 093°17'0 0.0
2017-Oct-18 07:30N 30°13' W 093°17'0 0.0
2017-Oct-18 07:00N 30°13' W 093°17'0 0.0
2017-Oct-18 06:30N 30°13' W 093°17'0 0.0
2017-Oct-18 05:57N 30°13' W 093°17'0 0.0
2017-Oct-18 05:29N 30°13' W 093°17'0 0.0
2017-Oct-18 04:59N 30°13' W 093°17'0 0.0
2017-Oct-18 04:29N 30°13' W 093°17'0 0.0
2017-Oct-18 03:59N 30°13' W 093°17'0 0.0
2017-Oct-18 03:28N 30°13' W 093°17'0 0.0
2017-Oct-18 02:58N 30°13' W 093°17'0 0.0
2017-Oct-18 02:28N 30°13' W 093°17'0 0.0
2017-Oct-18 01:58N 30°13' W 093°17'0 0.0
2017-Oct-18 01:28N 30°13' W 093°17'0 0.0
2017-Oct-18 01:00N 30°13' W 093°17'0 0.0
2017-Oct-18 00:30N 30°13' W 093°17'1 1.6
2017-Oct-18 00:01N 30°13' W 093°17'3 5.9
2017-Oct-17 23:31N 30°10' W 093°19'4 7.2
2017-Oct-17 23:01N 30°07' W 093°20'5 9.4
2017-Oct-17 22:30N 30°02' W 093°20'5 9.4
2017-Oct-17 22:01N 29°58' W 093°20'612.4
2017-Oct-17 21:31N 29°51' W 093°21'510.4
2017-Oct-17 21:00N 29°46' W 093°21'  
2017-Oct-14 22:32N 29°23' W 094°48'111.1
2017-Oct-14 22:25N 29°24' W 094°49'510.7
2017-Oct-14 22:00N 29°28' W 094°51'510.3
2017-Oct-14 21:30N 29°32' W 094°54'510.0
2017-Oct-14 21:00N 29°37' W 094°57'3 6.9
2017-Oct-14 20:30N 29°37' W 095°01'0 0.2
2017-Oct-14 19:52N 29°37' W 095°01'0 0.0
2017-Oct-14 19:16N 29°37' W 095°01'0 0.0
2017-Oct-14 18:36N 29°37' W 095°01'0 0.0
2017-Oct-14 18:24N 29°37' W 095°01'0 0.0
2017-Oct-14 16:51N 29°37' W 095°01'0 0.0
2017-Oct-14 15:47N 29°37' W 095°01'0 0.0
2017-Oct-14 15:29N 29°37' W 095°01'0 0.0
2017-Oct-14 14:11N 29°37' W 095°01'0 0.0
2017-Oct-14 13:52N 29°37' W 095°01'0 0.0
2017-Oct-14 11:42N 29°37' W 095°01'0 0.0
2017-Oct-14 11:30N 29°37' W 095°01'0 0.0
2017-Oct-14 06:58N 29°37' W 095°01'0 0.0
2017-Oct-14 03:45N 29°37' W 095°01'0 0.0
2017-Oct-14 03:30N 29°37' W 095°01'0 0.0
2017-Oct-14 02:57N 29°37' W 095°01'0 0.0
2017-Oct-14 02:08N 29°37' W 095°01'0 0.0
2017-Oct-13 23:10N 29°37' W 095°01'0 0.0
2017-Oct-13 22:59N 29°37' W 095°01'0 0.9
2017-Oct-13 22:30N 29°37' W 095°01'4 7.6
2017-Oct-13 22:00N 29°36' W 094°57'510.0
2017-Oct-13 21:30N 29°32' W 094°53'6 9.8
2017-Oct-13 20:54N 29°26' W 094°50'5 9.4
2017-Oct-13 20:23N 29°22' W 094°48'1 0.3
2017-Oct-13 16:52N 29°21' W 094°47'511.2
2017-Oct-13 16:27N 29°25' W 094°50'510.6
2017-Oct-13 16:00N 29°30' W 094°52'5 9.9
2017-Oct-13 15:30N 29°34' W 094°55'5 9.8
2017-Oct-13 15:00N 29°38' W 094°58'4 8.3
2017-Oct-13 14:30N 29°42' W 094°60'3 6.5
2017-Oct-13 14:00N 29°44' W 095°03'3 0.1
2017-Oct-12 13:21N 29°45' W 095°06'0 0.0
2017-Oct-12 13:00N 29°45' W 095°06'0 0.0
2017-Oct-11 20:46N 29°45' W 095°06'1 3.0
2017-Oct-11 20:30N 29°44' W 095°07'3 5.7
2017-Oct-11 20:00N 29°45' W 095°10'3 5.1
2017-Oct-11 19:30N 29°44' W 095°13'3 5.0
2017-Oct-11 18:55N 29°43' W 095°16'2 3.4
2017-Oct-11 18:28N 29°45' W 095°17'0 0.0
2017-Oct-11 17:58N 29°45' W 095°17'0 0.0
2017-Oct-11 17:27N 29°45' W 095°17'0 0.0
2017-Oct-11 16:57N 29°45' W 095°17'29 1.7
2017-Oct-10 23:55N 29°27' W 094°51'  
Track history (hours):
 
Tides and Currents Weather Stations Pressure Air Temp Water Temp Dewpoint Dewpoint Depression Visibility Wind Speed Wind Dir Waves Ship Positions

Emek S

Last reported at 2017-Oct-18 15:20 UTC. Time now 2017-Nov-23 16:50 UTC.
Position N 29°46' W 093°21'.
Warning: this ship's position is 36 days out of date.

Length 112 m; draft 7 m.

Type: Ship (hazmat cat B). MMSI: 249475000.

Date/timePositionNaut miles runAvg speedWind from/ knotsBaromVisibWave heightAir tempDewpointWater temp
2017-Oct-18 15:20N 29°46' W 093°21'412.2
2017-Oct-18 14:59N 29°50' W 093°21'1111.0
2017-Oct-18 14:00N 30°01' W 093°20'5 9.9
2017-Oct-18 13:30N 30°06' W 093°20'4 8.8
2017-Oct-18 13:00N 30°10' W 093°19'3 6.5
2017-Oct-18 12:30N 30°12' W 093°17'1 1.9
2017-Oct-18 11:59N 30°13' W 093°17'0 0.0
2017-Oct-18 11:29N 30°13' W 093°17'0 0.0
2017-Oct-18 10:59N 30°13' W 093°17'0 0.0
2017-Oct-18 10:29N 30°13' W 093°17'0 0.0
2017-Oct-18 09:58N 30°13' W 093°17'0 0.0
2017-Oct-18 09:28N 30°13' W 093°17'0 0.0
2017-Oct-18 08:58N 30°13' W 093°17'0 0.0
2017-Oct-18 08:28N 30°13' W 093°17'0 0.0
2017-Oct-18 08:00N 30°13' W 093°17'0 0.0
2017-Oct-18 07:30N 30°13' W 093°17'0 0.0
2017-Oct-18 07:00N 30°13' W 093°17'0 0.0
2017-Oct-18 06:30N 30°13' W 093°17'0 0.0
2017-Oct-18 05:57N 30°13' W 093°17'0 0.0
2017-Oct-18 05:29N 30°13' W 093°17'0 0.0
2017-Oct-18 04:59N 30°13' W 093°17'0 0.0
2017-Oct-18 04:29N 30°13' W 093°17'0 0.0
2017-Oct-18 03:59N 30°13' W 093°17'0 0.0
2017-Oct-18 03:28N 30°13' W 093°17'0 0.0
2017-Oct-18 02:58N 30°13' W 093°17'0 0.0
2017-Oct-18 02:28N 30°13' W 093°17'0 0.0
2017-Oct-18 01:58N 30°13' W 093°17'0 0.0
2017-Oct-18 01:28N 30°13' W 093°17'0 0.0
2017-Oct-18 01:00N 30°13' W 093°17'0 0.0
2017-Oct-18 00:30N 30°13' W 093°17'1 1.6
2017-Oct-18 00:01N 30°13' W 093°17'3 5.9
2017-Oct-17 23:31N 30°10' W 093°19'4 7.2
2017-Oct-17 23:01N 30°07' W 093°20'5 9.4
2017-Oct-17 22:30N 30°02' W 093°20'5 9.4
2017-Oct-17 22:01N 29°58' W 093°20'612.4
2017-Oct-17 21:31N 29°51' W 093°21'510.4
2017-Oct-17 21:00N 29°46' W 093°21'  
2017-Oct-14 22:32N 29°23' W 094°48'111.1
2017-Oct-14 22:25N 29°24' W 094°49'510.7
2017-Oct-14 22:00N 29°28' W 094°51'510.3
2017-Oct-14 21:30N 29°32' W 094°54'510.0
2017-Oct-14 21:00N 29°37' W 094°57'3 6.9
2017-Oct-14 20:30N 29°37' W 095°01'0 0.2
2017-Oct-14 19:52N 29°37' W 095°01'0 0.0
2017-Oct-14 19:16N 29°37' W 095°01'0 0.0
2017-Oct-14 18:36N 29°37' W 095°01'0 0.0
2017-Oct-14 18:24N 29°37' W 095°01'0 0.0
2017-Oct-14 16:51N 29°37' W 095°01'0 0.0
2017-Oct-14 15:47N 29°37' W 095°01'0 0.0
2017-Oct-14 15:29N 29°37' W 095°01'0 0.0
2017-Oct-14 14:11N 29°37' W 095°01'0 0.0
2017-Oct-14 13:52N 29°37' W 095°01'0 0.0
2017-Oct-14 11:42N 29°37' W 095°01'0 0.0
2017-Oct-14 11:30N 29°37' W 095°01'0 0.0
2017-Oct-14 06:58N 29°37' W 095°01'0 0.0
2017-Oct-14 03:45N 29°37' W 095°01'0 0.0
2017-Oct-14 03:30N 29°37' W 095°01'0 0.0
2017-Oct-14 02:57N 29°37' W 095°01'0 0.0
2017-Oct-14 02:08N 29°37' W 095°01'0 0.0
2017-Oct-13 23:10N 29°37' W 095°01'0 0.0
2017-Oct-13 22:59N 29°37' W 095°01'0 0.9
2017-Oct-13 22:30N 29°37' W 095°01'4 7.6
2017-Oct-13 22:00N 29°36' W 094°57'510.0
2017-Oct-13 21:30N 29°32' W 094°53'6 9.8
2017-Oct-13 20:54N 29°26' W 094°50'5 9.4
2017-Oct-13 20:23N 29°22' W 094°48'1 0.3
2017-Oct-13 16:52N 29°21' W 094°47'511.2
2017-Oct-13 16:27N 29°25' W 094°50'510.6
2017-Oct-13 16:00N 29°30' W 094°52'5 9.9
2017-Oct-13 15:30N 29°34' W 094°55'5 9.8
2017-Oct-13 15:00N 29°38' W 094°58'4 8.3
2017-Oct-13 14:30N 29°42' W 094°60'3 6.5
2017-Oct-13 14:00N 29°44' W 095°03'3 0.1
2017-Oct-12 13:21N 29°45' W 095°06'0 0.0
2017-Oct-12 13:00N 29°45' W 095°06'0 0.0
2017-Oct-11 20:46N 29°45' W 095°06'1 3.0
2017-Oct-11 20:30N 29°44' W 095°07'3 5.7
2017-Oct-11 20:00N 29°45' W 095°10'3 5.1
2017-Oct-11 19:30N 29°44' W 095°13'3 5.0
2017-Oct-11 18:55N 29°43' W 095°16'2 3.4
2017-Oct-11 18:28N 29°45' W 095°17'0 0.0
2017-Oct-11 17:58N 29°45' W 095°17'0 0.0
2017-Oct-11 17:27N 29°45' W 095°17'0 0.0
2017-Oct-11 16:57N 29°45' W 095°17'29 1.7
2017-Oct-10 23:55N 29°27' W 094°51'  

Dump ship's entire track history